createdAt,value
2018-04-28T00:02:29.107Z,59.60
2018-04-28T00:04:56.478Z,60.20
2018-04-28T00:07:23.162Z,60.50
2018-04-28T00:09:49.758Z,60.40
2018-04-28T00:12:16.795Z,61.50
2018-04-28T00:14:43.682Z,61.40
2018-04-28T00:17:19.751Z,61.60
2018-04-28T00:19:49.256Z,61.30
2018-04-28T00:22:19.073Z,61.40
2018-04-28T00:24:46.058Z,61.30
2018-04-28T00:27:12.278Z,61.30
2018-04-28T00:29:41.353Z,61.40
2018-04-28T00:32:09.061Z,61.70
2018-04-28T00:34:47.705Z,61.60
2018-04-28T00:37:14.141Z,61.50
2018-04-28T00:39:42.660Z,62.00
2018-04-28T00:42:08.903Z,63.00
2018-04-28T00:44:35.131Z,62.30
2018-04-28T00:47:17.209Z,62.60
2018-04-28T00:50:00.030Z,64.70
2018-04-28T00:52:26.990Z,63.90
2018-04-28T00:54:54.146Z,63.90
2018-04-28T01:00:32.892Z,62.30
2018-04-28T01:02:59.071Z,63.00
2018-04-28T01:05:40.372Z,63.10
2018-04-28T01:08:06.686Z,63.40
2018-04-28T01:10:33.828Z,62.60
2018-04-28T01:13:09.302Z,64.10
2018-04-28T01:15:36.515Z,64.00
2018-04-28T01:18:04.615Z,63.90
2018-04-28T01:20:32.584Z,63.90
2018-04-28T01:23:02.708Z,65.50
2018-04-28T01:25:50.077Z,66.00
2018-04-28T01:31:29.250Z,64.90
2018-04-28T01:34:06.311Z,64.80
2018-04-28T01:36:34.251Z,65.60
2018-04-28T01:41:57.323Z,64.70
2018-04-28T01:44:33.444Z,65.00
2018-04-28T01:47:00.708Z,65.20
2018-04-28T01:49:31.393Z,64.70
2018-04-28T01:51:59.016Z,64.70
2018-04-28T01:54:44.452Z,65.70
2018-04-28T01:57:18.085Z,65.70
2018-04-28T01:59:53.637Z,65.50
2018-04-28T02:02:23.879Z,65.30
2018-04-28T02:04:53.948Z,65.40
2018-04-28T02:07:21.535Z,65.40
2018-04-28T02:09:51.980Z,65.40
2018-04-28T02:12:21.057Z,65.60
2018-04-28T02:14:47.292Z,66.30
2018-04-28T02:17:13.517Z,65.40
2018-04-28T02:19:53.001Z,66.30
2018-04-28T02:22:29.110Z,66.90
2018-04-28T02:25:03.150Z,66.80
2018-04-28T02:27:40.585Z,66.40
2018-04-28T02:30:07.567Z,66.20
2018-04-28T02:32:34.761Z,66.10
2018-04-28T02:35:08.927Z,66.10
2018-04-28T02:37:48.105Z,66.00
2018-04-28T02:40:26.776Z,66.80
2018-04-28T02:42:53.014Z,66.70
2018-04-28T02:45:37.140Z,66.50
2018-04-28T02:48:07.309Z,66.90
2018-04-28T02:50:34.973Z,66.30
2018-04-28T02:53:15.562Z,66.20
2018-04-28T02:58:52.457Z,67.10
2018-04-28T03:01:23.040Z,66.80
2018-04-28T03:03:53.093Z,66.80
2018-04-28T03:06:24.612Z,66.60
2018-04-28T03:08:52.002Z,66.20
2018-04-28T03:11:19.393Z,66.30
2018-04-28T03:13:50.433Z,66.30
2018-04-28T03:16:21.302Z,66.20
2018-04-28T03:18:47.524Z,66.10
2018-04-28T03:21:17.917Z,67.10
2018-04-28T03:23:46.955Z,67.10
2018-04-28T03:26:17.002Z,66.90
2018-04-28T03:28:47.488Z,66.80
2018-04-28T03:31:14.682Z,66.80
2018-04-28T03:33:43.803Z,67.20
2018-04-28T03:36:16.657Z,67.10
2018-04-28T03:38:43.677Z,67.00
2018-04-28T03:41:10.725Z,67.40
2018-04-28T03:43:37.789Z,67.20
2018-04-28T03:46:21.842Z,68.20
2018-04-28T03:49:02.989Z,67.90
2018-04-28T03:51:31.228Z,67.80
2018-04-28T03:54:03.769Z,68.30
2018-04-28T03:56:30.065Z,68.40
2018-04-28T03:59:08.990Z,68.60
2018-04-28T04:01:47.576Z,68.40
2018-04-28T04:07:27.783Z,68.50
2018-04-28T04:09:54.001Z,68.20
2018-04-28T04:12:26.284Z,69.10
2018-04-28T04:15:09.795Z,69.30
2018-04-28T04:20:31.602Z,68.90
2018-04-28T04:23:12.649Z,68.90
2018-04-28T04:26:13.083Z,68.40
2018-04-28T04:29:00.925Z,69.30
2018-04-28T04:31:36.517Z,69.20
2018-04-28T04:34:04.259Z,69.80
2018-04-28T04:36:39.703Z,70.90
2018-04-28T04:39:32.712Z,70.50
2018-04-28T04:42:16.639Z,70.50
2018-04-28T04:44:45.883Z,70.60
2018-04-28T04:50:34.655Z,70.80
2018-04-28T04:56:41.343Z,69.90
2018-04-28T04:59:20.396Z,69.60
2018-04-28T05:01:59.225Z,69.30
2018-04-28T05:04:37.384Z,70.60
2018-04-28T05:07:08.552Z,70.20
2018-04-28T05:09:50.016Z,70.20
2018-04-28T05:12:25.704Z,69.40
2018-04-28T05:15:04.779Z,69.30
2018-04-28T05:27:21.904Z,69.00
2018-04-28T05:30:01.059Z,63.50
2018-04-28T05:32:34.246Z,62.60
2018-04-28T05:35:23.209Z,60.00
2018-04-28T05:38:11.387Z,59.10
2018-04-28T05:43:56.444Z,58.00
2018-04-28T05:49:37.373Z,56.00
2018-04-28T05:52:15.448Z,55.30
2018-04-28T05:54:55.639Z,53.90
2018-04-28T05:57:33.711Z,53.70
2018-04-28T06:00:28.001Z,52.90
2018-04-28T06:03:07.528Z,52.90
2018-04-28T06:05:46.674Z,51.10
2018-04-28T06:08:37.896Z,51.20
2018-04-28T06:11:40.129Z,50.10
2018-04-28T06:14:25.097Z,50.60
2018-04-28T06:17:09.232Z,49.70
2018-04-28T06:20:00.553Z,50.00
2018-04-28T06:22:27.496Z,49.50
2018-04-28T06:24:54.340Z,49.50
2018-04-28T06:27:20.638Z,50.20
2018-04-28T06:29:46.849Z,49.70
2018-04-28T06:32:13.058Z,50.30
2018-04-28T06:34:40.984Z,50.90
2018-04-28T06:37:07.728Z,50.90
2018-04-28T06:39:34.494Z,51.80
2018-04-28T06:42:01.465Z,51.00
2018-04-28T06:44:27.654Z,51.00
2018-04-28T06:47:08.892Z,50.40
2018-04-28T06:49:35.204Z,49.80
2018-04-28T06:52:01.570Z,51.30
2018-04-28T06:54:29.076Z,50.70
2018-04-28T06:56:56.214Z,50.80
2018-04-28T06:59:23.188Z,50.40
2018-04-28T07:01:49.448Z,50.30
2018-04-28T07:04:16.195Z,50.50
2018-04-28T07:06:43.187Z,50.20
2018-04-28T07:09:10.405Z,50.50
2018-04-28T07:11:36.680Z,50.60
2018-04-28T07:14:02.946Z,50.40
2018-04-28T07:16:30.162Z,50.00
2018-04-28T07:18:56.376Z,49.90
2018-04-28T07:21:22.638Z,49.50
2018-04-28T07:23:50.108Z,49.70
2018-04-28T07:26:16.324Z,50.10
2018-04-28T07:28:43.057Z,50.70
2018-04-28T07:31:10.884Z,49.30
2018-04-28T07:33:37.826Z,49.10
2018-04-28T07:36:04.821Z,48.60
2018-04-28T07:38:31.310Z,48.60
2018-04-28T07:40:58.396Z,48.10
2018-04-28T07:43:25.282Z,48.10
2018-04-28T07:45:52.480Z,48.20
2018-04-28T07:48:18.936Z,47.90
2018-04-28T07:50:46.293Z,47.60
2018-04-28T07:53:13.449Z,47.50
2018-04-28T07:55:40.165Z,47.50
2018-04-28T07:58:06.476Z,47.70
2018-04-28T08:00:33.607Z,46.60
2018-04-28T08:02:59.985Z,46.20
2018-04-28T08:05:26.660Z,46.70
2018-04-28T08:07:53.936Z,45.60
2018-04-28T08:10:21.160Z,46.00
2018-04-28T08:12:48.153Z,45.50
2018-04-28T08:15:14.822Z,45.40
2018-04-28T08:17:42.401Z,43.90
2018-04-28T08:20:09.660Z,43.70
2018-04-28T08:22:36.841Z,43.10
2018-04-28T08:25:03.294Z,43.10
2018-04-28T08:27:29.918Z,44.00
2018-04-28T08:29:56.979Z,43.60
2018-04-28T08:32:24.070Z,43.80
2018-04-28T08:34:50.430Z,43.10
2018-04-28T08:37:16.848Z,41.50
2018-04-28T08:39:43.894Z,41.50
2018-04-28T08:42:10.918Z,41.60
2018-04-28T08:44:37.226Z,41.50
2018-04-28T08:47:03.428Z,41.20
2018-04-28T08:49:30.551Z,39.90
2018-04-28T08:51:58.060Z,39.60
2018-04-28T08:54:25.109Z,39.70
2018-04-28T08:56:52.334Z,39.70
2018-04-28T08:59:19.073Z,39.10
2018-04-28T09:01:45.395Z,38.20
2018-04-28T09:04:12.288Z,38.00
2018-04-28T09:06:40.356Z,38.80
2018-04-28T09:09:06.580Z,38.50
2018-04-28T09:11:32.831Z,37.00
2018-04-28T09:13:59.097Z,36.40
2018-04-28T09:16:32.473Z,35.00
2018-04-28T09:18:58.715Z,35.20
2018-04-28T09:21:26.335Z,34.30
2018-04-28T09:23:52.530Z,34.30
2018-04-28T09:26:18.861Z,34.30
2018-04-28T09:28:45.019Z,31.20
2018-04-28T09:31:12.151Z,31.30
2018-04-28T09:33:39.177Z,30.80
2018-04-28T09:36:06.016Z,30.80
2018-04-28T09:38:32.835Z,32.20
2018-04-28T09:40:59.029Z,30.00
2018-04-28T09:43:25.243Z,31.50
2018-04-28T09:45:53.612Z,33.30
2018-04-28T09:48:19.925Z,33.30
2018-04-28T09:50:46.227Z,32.40
2018-04-28T09:53:12.422Z,31.20
2018-04-28T09:55:39.879Z,31.80
2018-04-28T09:58:06.239Z,31.60
2018-04-28T10:00:34.388Z,30.00
2018-04-28T10:03:04.861Z,29.40
2018-04-28T10:05:31.112Z,29.40
2018-04-28T10:07:57.871Z,29.30
2018-04-28T10:10:24.096Z,29.60
2018-04-28T10:12:50.500Z,31.00
2018-04-28T10:15:17.426Z,29.80
2018-04-28T10:17:44.309Z,29.80
2018-04-28T10:20:11.301Z,30.30
2018-04-28T10:22:37.543Z,30.30
2018-04-28T10:25:04.054Z,31.20
2018-04-28T10:27:31.521Z,30.70
2018-04-28T10:29:57.620Z,30.60
2018-04-28T10:32:24.434Z,29.50
2018-04-28T10:34:50.522Z,29.50
2018-04-28T10:37:17.578Z,29.90
2018-04-28T10:39:44.116Z,29.30
2018-04-28T10:42:10.181Z,28.90
2018-04-28T10:44:36.260Z,28.60
2018-04-28T10:47:03.389Z,29.60
2018-04-28T10:49:29.433Z,29.50
2018-04-28T10:51:55.488Z,29.00
2018-04-28T10:54:21.540Z,29.10
2018-04-28T10:56:48.347Z,29.70
2018-04-28T10:59:14.396Z,29.70
2018-04-28T11:01:40.462Z,30.30
2018-04-28T11:04:06.525Z,29.50
2018-04-28T11:06:32.880Z,30.40
2018-04-28T11:08:59.248Z,29.30
2018-04-28T11:11:25.298Z,28.10
2018-04-28T11:13:51.354Z,28.00
2018-04-28T11:16:17.420Z,27.90
2018-04-28T11:18:43.453Z,28.00
2018-04-28T11:21:09.819Z,28.60
2018-04-28T11:23:36.680Z,28.60
2018-04-28T11:26:02.764Z,28.60
2018-04-28T11:28:28.864Z,28.40
2018-04-28T11:30:54.948Z,29.50
2018-04-28T11:33:21.577Z,27.50
2018-04-28T11:35:47.776Z,27.80
2018-04-28T11:38:13.920Z,28.40
2018-04-28T11:40:39.956Z,27.60
2018-04-28T11:43:06.600Z,27.70
2018-04-28T11:45:32.654Z,28.20
2018-04-28T11:47:58.729Z,28.00
2018-04-28T11:50:24.788Z,28.10
2018-04-28T11:52:52.344Z,27.30
2018-04-28T11:55:19.504Z,28.10
2018-04-28T11:57:46.400Z,27.60
2018-04-28T12:00:13.135Z,27.60
2018-04-28T12:02:39.191Z,27.10
2018-04-28T12:05:06.018Z,28.60
2018-04-28T12:07:32.052Z,28.60
2018-04-28T12:09:58.119Z,28.70
2018-04-28T12:12:25.242Z,28.30
2018-04-28T12:14:52.622Z,27.80
2018-04-28T12:17:19.577Z,27.60
2018-04-28T12:19:46.207Z,27.60
2018-04-28T12:22:12.285Z,27.50
2018-04-28T12:24:38.707Z,27.80
2018-04-28T12:27:06.519Z,28.30
2018-04-28T12:29:33.182Z,28.30
2018-04-28T12:31:59.792Z,29.20
2018-04-28T12:34:26.588Z,28.40
2018-04-28T12:36:52.662Z,28.40
2018-04-28T12:39:18.744Z,28.90
2018-04-28T12:41:44.832Z,28.40
2018-04-28T12:44:10.903Z,28.70
2018-04-28T12:46:37.739Z,28.20
2018-04-28T12:49:03.822Z,28.20
2018-04-28T12:51:29.888Z,29.30
2018-04-28T12:53:56.383Z,28.80
2018-04-28T12:56:22.936Z,29.70
2018-04-28T12:58:50.368Z,28.60
2018-04-28T13:01:17.943Z,28.80
2018-04-28T13:03:43.992Z,28.70
2018-04-28T13:06:10.113Z,29.70
2018-04-28T13:08:36.141Z,29.30
2018-04-28T13:11:02.231Z,29.20
2018-04-28T13:13:29.325Z,29.50
2018-04-28T13:15:56.772Z,29.70
2018-04-28T13:18:23.684Z,29.70
2018-04-28T13:20:50.512Z,29.30
2018-04-28T13:23:17.619Z,29.30
2018-04-28T13:25:44.432Z,30.10
2018-04-28T13:28:11.117Z,30.10
2018-04-28T13:30:38.577Z,30.60
2018-04-28T13:33:05.805Z,30.50
2018-04-28T13:35:32.609Z,30.90
2018-04-28T13:37:58.669Z,30.90
2018-04-28T13:40:33.034Z,29.70
2018-04-28T13:43:01.053Z,29.70
2018-04-28T13:45:27.881Z,30.00
2018-04-28T13:47:54.901Z,30.70
2018-04-28T13:50:21.696Z,30.60
2018-04-28T13:52:48.501Z,30.50
2018-04-28T13:55:14.744Z,30.40
2018-04-28T13:57:40.853Z,31.20
2018-04-28T14:00:06.902Z,30.50
2018-04-28T14:02:32.976Z,30.90
2018-04-28T14:04:59.029Z,30.40
2018-04-28T14:07:25.735Z,30.70
2018-04-28T14:09:51.869Z,30.80
2018-04-28T14:12:17.961Z,30.90
2018-04-28T14:14:45.116Z,31.20
2018-04-28T14:17:11.202Z,31.20
2018-04-28T14:19:37.282Z,31.20
2018-04-28T14:22:03.336Z,31.60
2018-04-28T14:24:29.437Z,31.50
2018-04-28T14:26:55.527Z,31.40
2018-04-28T14:29:21.552Z,31.60
2018-04-28T14:31:48.395Z,31.60
2018-04-28T14:34:15.307Z,31.80
2018-04-28T14:36:41.418Z,31.60
2018-04-28T14:39:08.085Z,31.60
2018-04-28T14:41:34.248Z,32.30
2018-04-28T14:44:00.311Z,31.60
2018-04-28T14:46:27.107Z,31.20
2018-04-28T14:48:53.177Z,31.30
2018-04-28T14:51:19.253Z,31.30
2018-04-28T14:53:45.375Z,31.50
2018-04-28T14:58:44.663Z,31.90
2018-04-28T15:01:11.420Z,32.40
2018-04-28T15:03:38.923Z,31.50
2018-04-28T15:06:05.644Z,31.40
2018-04-28T15:08:31.756Z,31.90
2018-04-28T15:10:58.158Z,32.20
2018-04-28T15:13:24.733Z,31.70
2018-04-28T15:15:50.838Z,31.50
2018-04-28T15:18:17.614Z,32.10
2018-04-28T15:20:44.161Z,32.10
2018-04-28T15:23:10.264Z,32.20
2018-04-28T15:25:36.848Z,33.40
2018-04-28T15:28:02.929Z,32.40
2018-04-28T15:30:28.976Z,32.20
2018-04-28T15:32:55.344Z,33.20
2018-04-28T15:35:22.201Z,33.30
2018-04-28T15:37:49.045Z,33.10
2018-04-28T15:40:15.156Z,33.10
2018-04-28T15:42:41.965Z,33.50
2018-04-28T15:45:08.322Z,33.50
2018-04-28T15:47:35.124Z,33.50
2018-04-28T15:50:01.222Z,33.50
2018-04-28T15:52:27.427Z,33.80
2018-04-28T15:54:54.319Z,33.40
2018-04-28T15:57:20.365Z,33.30
2018-04-28T15:59:46.480Z,33.30
2018-04-28T16:02:12.657Z,33.60
2018-04-28T16:04:38.717Z,34.30
2018-04-28T16:07:05.506Z,34.10
2018-04-28T16:09:32.326Z,34.20
2018-04-28T16:11:58.382Z,34.20
2018-04-28T16:14:26.589Z,33.30
2018-04-28T16:16:53.472Z,33.80
2018-04-28T16:19:20.238Z,33.80
2018-04-28T16:21:47.062Z,33.60
2018-04-28T16:24:13.114Z,33.60
2018-04-28T16:26:39.176Z,34.00
2018-04-28T16:29:05.254Z,34.00
2018-04-28T16:31:31.320Z,34.00
2018-04-28T16:33:58.138Z,34.00
2018-04-28T16:36:24.717Z,34.20
2018-04-28T16:38:51.815Z,34.40
2018-04-28T16:41:17.898Z,34.20
2018-04-28T16:43:44.952Z,35.70
2018-04-28T16:46:11.018Z,37.00
2018-04-28T16:48:37.053Z,36.40
2018-04-28T16:51:03.147Z,36.40
2018-04-28T16:53:29.208Z,36.30
2018-04-28T16:55:55.279Z,35.70
2018-04-28T16:58:22.103Z,37.60
2018-04-28T17:00:48.145Z,37.50
2018-04-28T17:03:15.986Z,37.50
2018-04-28T17:05:42.050Z,37.50
2018-04-28T17:08:08.509Z,37.70
2018-04-28T17:10:34.592Z,37.00
2018-04-28T17:13:01.437Z,38.40
2018-04-28T17:15:28.492Z,37.50
2018-04-28T17:17:55.314Z,38.10
2018-04-28T17:20:21.774Z,38.10
2018-04-28T17:22:47.832Z,38.30
2018-04-28T17:25:21.328Z,38.80
2018-04-28T17:27:47.386Z,38.60
2018-04-28T17:30:13.488Z,38.80
2018-04-28T17:32:40.404Z,38.80
2018-04-28T17:35:06.461Z,38.90
2018-04-28T17:37:32.984Z,39.00
2018-04-28T17:39:59.028Z,40.60
2018-04-28T17:42:25.145Z,41.70
2018-04-28T17:44:51.193Z,41.20
2018-04-28T17:47:17.463Z,40.90
2018-04-28T17:49:44.081Z,41.00
2018-04-28T17:52:10.869Z,41.50
2018-04-28T17:54:36.952Z,41.50
2018-04-28T17:57:03.500Z,40.40
2018-04-28T17:59:30.384Z,42.10
2018-04-28T18:01:56.448Z,42.10
2018-04-28T18:04:23.277Z,43.10
2018-04-28T18:06:50.126Z,43.10
2018-04-28T18:09:16.921Z,43.10
2018-04-28T18:11:43.285Z,43.10
2018-04-28T18:14:09.346Z,43.40
2018-04-28T18:16:35.549Z,42.80
2018-04-28T18:19:02.412Z,44.90
2018-04-28T18:23:56.247Z,45.00
2018-04-28T18:26:22.383Z,44.10
2018-04-28T18:28:49.489Z,45.50
2018-04-28T18:31:15.564Z,45.40
2018-04-28T18:33:41.708Z,46.70
2018-04-28T18:36:08.525Z,47.40
2018-04-28T18:38:34.601Z,47.30
2018-04-28T18:41:00.894Z,46.20
2018-04-28T18:43:27.716Z,48.00
2018-04-28T18:45:53.772Z,48.00
2018-04-28T18:48:21.200Z,48.20
2018-04-28T18:50:47.263Z,48.10
2018-04-28T18:53:14.420Z,49.20
2018-04-28T18:55:40.537Z,49.50
2018-04-28T18:58:06.589Z,49.70
2018-04-28T19:00:33.193Z,49.80
2018-04-28T19:02:59.268Z,49.50
2018-04-28T19:05:25.345Z,50.20
2018-04-28T19:07:51.416Z,50.20
2018-04-28T19:10:17.476Z,50.50
2018-04-28T19:12:44.306Z,50.60
2018-04-28T19:15:10.344Z,50.60
2018-04-28T19:17:37.592Z,50.50
2018-04-28T19:20:04.685Z,50.90
2018-04-28T19:22:30.777Z,50.90
2018-04-28T19:24:58.316Z,50.60
2018-04-28T19:27:25.120Z,50.90
2018-04-28T19:29:51.425Z,50.30
2018-04-28T19:32:18.772Z,50.90
2018-04-28T19:34:45.568Z,51.20
2018-04-28T19:37:11.882Z,50.70
2018-04-28T19:39:38.596Z,51.10
2018-04-28T19:42:05.470Z,50.30
2018-04-28T19:44:31.673Z,50.20
2018-04-28T19:46:57.781Z,51.10
2018-04-28T19:49:23.823Z,51.10
2018-04-28T19:51:50.428Z,51.30
2018-04-28T19:54:17.619Z,50.70
2018-04-28T19:56:45.056Z,51.60
2018-04-28T19:59:11.116Z,51.60
2018-04-28T20:11:23.115Z,51.70
2018-04-28T20:13:49.916Z,52.80
2018-04-28T20:16:16.389Z,52.80
2018-04-28T20:18:42.472Z,52.90
2018-04-28T20:21:08.535Z,53.00
2018-04-28T20:23:41.801Z,53.30
2018-04-28T20:26:07.860Z,53.20
2018-04-28T20:28:34.253Z,53.30
2018-04-28T20:31:00.314Z,52.50
2018-04-28T20:33:26.728Z,54.10
2018-04-28T20:35:53.588Z,54.00
2018-04-28T20:38:19.615Z,54.00
2018-04-28T20:40:46.501Z,53.70
2018-04-28T20:43:13.684Z,53.80
2018-04-28T20:45:40.483Z,55.00
2018-04-28T20:48:06.542Z,54.90
2018-04-28T20:50:33.610Z,54.80
2018-04-28T20:53:00.388Z,54.20
2018-04-28T20:55:26.516Z,54.10
2018-04-28T20:57:52.565Z,54.90
2018-04-28T21:00:18.656Z,53.80
2018-04-28T21:02:44.796Z,55.20
2018-04-28T21:05:11.389Z,54.70
2018-04-28T21:07:38.537Z,55.70
2018-04-28T21:10:05.326Z,55.70
2018-04-28T21:12:31.408Z,55.60
2018-04-28T21:14:58.204Z,55.80
2018-04-28T21:17:24.802Z,55.80
2018-04-28T21:19:50.871Z,56.20
2018-04-28T21:22:16.957Z,55.70
2018-04-28T21:24:43.045Z,56.20
2018-04-28T21:27:10.055Z,56.60
2018-04-28T21:29:36.138Z,56.60
2018-04-28T21:32:02.213Z,56.70
2018-04-28T21:34:28.276Z,56.40
2018-04-28T21:36:54.339Z,56.30
2018-04-28T21:39:20.413Z,55.40
2018-04-28T21:41:47.536Z,56.30
2018-04-28T21:44:13.846Z,56.30
2018-04-28T21:46:40.691Z,57.70
2018-04-28T21:49:06.731Z,57.70
2018-04-28T21:51:32.800Z,56.50
2018-04-28T21:53:58.856Z,56.90
2018-04-28T21:56:25.017Z,56.70
2018-04-28T21:58:52.461Z,57.00
2018-04-28T22:01:18.560Z,57.00
2018-04-28T22:03:44.610Z,57.90
2018-04-28T22:06:11.221Z,57.60
2018-04-28T22:08:38.418Z,57.40
2018-04-28T22:11:05.862Z,58.20
2018-04-28T22:13:32.554Z,57.50
2018-04-28T22:15:59.579Z,57.80
2018-04-28T22:18:26.292Z,57.50
2018-04-28T22:20:52.381Z,57.80
2018-04-28T22:23:18.436Z,58.80
2018-04-28T22:25:45.118Z,57.30
2018-04-28T22:28:11.787Z,57.70
2018-04-28T22:30:38.428Z,57.40
2018-04-28T22:33:05.085Z,57.50
2018-04-28T22:35:38.730Z,57.90
2018-04-28T22:38:04.788Z,58.10
2018-04-28T22:40:31.164Z,58.10
2018-04-28T22:42:57.946Z,57.90
2018-04-28T22:45:24.706Z,57.90
2018-04-28T22:47:50.811Z,58.80
2018-04-28T22:50:16.868Z,59.30
2018-04-28T22:52:42.965Z,59.20
2018-04-28T22:55:09.024Z,59.70
2018-04-28T22:57:35.076Z,59.50
2018-04-28T23:00:01.143Z,59.10
2018-04-28T23:02:27.708Z,59.50
2018-04-28T23:04:53.808Z,59.50
2018-04-28T23:07:19.881Z,58.80
2018-04-28T23:09:46.675Z,59.70
2018-04-28T23:12:12.749Z,59.70
2018-04-28T23:14:38.809Z,60.00
2018-04-28T23:17:05.615Z,59.70
2018-04-28T23:19:31.669Z,59.40
2018-04-28T23:21:57.740Z,60.10
2018-04-28T23:24:23.797Z,60.00
2018-04-28T23:26:50.184Z,59.50
2018-04-28T23:29:16.257Z,60.40
2018-04-28T23:31:42.355Z,60.70
2018-04-28T23:34:09.197Z,60.80
2018-04-28T23:36:36.006Z,60.80
2018-04-28T23:39:02.090Z,60.80
2018-04-28T23:41:28.158Z,62.70
2018-04-28T23:43:54.374Z,61.20
2018-04-28T23:46:21.244Z,62.30
2018-04-28T23:48:47.299Z,62.30
2018-04-28T23:51:13.379Z,62.60
2018-04-28T23:53:39.437Z,62.90
2018-04-28T23:56:07.714Z,62.40
2018-04-28T23:58:34.581Z,62.70
